This is the latest recevied weather packets stored in our database for station/object KI5NYZ. If no packets are shown the sender has not sent any weather packets the latest 10 day(s).
| Time | Temp. | Humidity | Pressure | Rain* | Wind** | Luminosity | Snow |
|---|---|---|---|---|---|---|---|
| 1777286124 | 16.67° C | 27% | 1008.5 hPa | 0 mm | - | 0 W/m² | - |
| 1777284924 | 17.22° C | 27% | 1008.4 hPa | 0 mm | - | 0 W/m² | - |
| 1777282524 | 17.78° C | 26% | 1008 hPa | 0 mm | - | 0 W/m² | - |
| 1777278325 | 20.56° C | 22% | 1007.3 hPa | 0 mm | - | 0 W/m² | - |
| 1777270519 | 26.11° C | 16% | 1006.5 hPa | 0 mm | - | 0 W/m² | - |
| 1777267520 | 26.67° C | 16% | 1006.3 hPa | 0 mm | - | 0 W/m² | - |
| 1777258519 | 26.11° C | 16% | 1004.6 hPa | 0 mm | - | 0 W/m² | - |
| 1777257921 | 26.11° C | 16% | 1004.4 hPa | 0 mm | - | 0 W/m² | - |
| 1777254320 | 30° C | 13% | 1003.6 hPa | 0.51 mm | - | 0 W/m² | - |
| 1777251922 | 31.67° C | 11% | 1003.1 hPa | 3.81 mm | - | 29 W/m² | - |
| 1777251321 | 32.22° C | 11% | 1003.1 hPa | 4.32 mm | - | 44 W/m² | - |
| 1777250121 | 33.33° C | 11% | 1002.9 hPa | 4.06 mm | - | 93 W/m² | - |
| 1777247723 | 33.89° C | 10% | 1002.9 hPa | 6.35 mm | - | 216 W/m² | - |
| 1777247121 | 34.44° C | 11% | 1003 hPa | 6.35 mm | - | 254 W/m² | - |
| 1777246519 | 34.44° C | 11% | 1003 hPa | 8.89 mm | - | 315 W/m² | - |
| 1777242940 | 34.44° C | 11% | 1003 hPa | 2.79 mm | - | 539 W/m² | - |
| 1777239321 | 33.89° C | 12% | 1004.1 hPa | 1.52 mm | - | 216 W/m² | - |
| 1777238763 | 34.44° C | 12% | 1004.2 hPa | 2.54 mm | - | 817 W/m² | - |
| 1777235121 | 34.44° C | 10% | 1005.4 hPa | 4.57 mm | - | 932 W/m² | - |
| 1777233341 | 33.89° C | 11% | 1005.6 hPa | 2.29 mm | - | 988 W/m² | - |
| 1777231539 | 32.78° C | 12% | 1006.4 hPa | 1.27 mm | - | 1033 W/m² | - |
| 1777222519 | 30° C | 14% | 1008.8 hPa | 0 mm | - | 928 W/m² | - |
| 1777215940 | 25.56° C | 19% | 1009.2 hPa | 0 mm | - | 179 W/m² | - |
| 1777215323 | 25° C | 20% | 1009.2 hPa | 0 mm | - | 179 W/m² | - |
| 1777214141 | 23.33° C | 21% | 1009.2 hPa | 0 mm | - | 64 W/m² | - |
* Rain latest hour (hover to see other rain measurements)
** Current wind speed in m/s (hover to see current wind gust speed)